Time;durP1;ratioP1;P1;durP2;ratioP2;P2;SDS_P1;SDS_P2;PMS_P1;PMS_P2;Temp;Humidity;BMP_temperature;BMP_pressure;BME280_temperature;BME280_humidity;BME280_pressure;Samples;Min_cycle;Max_cycle;Signal;HPM_P1;HPM_P2
2022/07/27 00:00:53;;;;;;;7.55;3.30;;;;;;;23.15;48.12;99843.13;4986106;28;20042;-87
2022/07/27 00:03:22;;;;;;;5.97;3.40;;;;;;;23.04;48.72;99838.38;4982640;28;20038;-81
2022/07/27 00:05:49;;;;;;;8.55;3.38;;;;;;;23.04;48.48;99840.28;4997935;28;20078;-81
2022/07/27 00:08:22;;;;;;;6.47;3.97;;;;;;;23.01;49.03;99840.72;4982409;28;20050;-81
2022/07/27 00:10:50;;;;;;;8.68;3.50;;;;;;;23.00;48.68;99841.75;5027518;28;20043;-82
2022/07/27 00:13:17;;;;;;;7.85;3.53;;;;;;;22.99;48.47;99848.22;4977171;28;20486;-83
2022/07/27 00:15:44;;;;;;;7.03;3.45;;;;;;;22.97;48.61;99848.41;4984394;28;20096;-83
2022/07/27 00:18:10;;;;;;;5.55;3.13;;;;;;;23.00;48.56;99841.75;4963477;28;20043;-82
2022/07/27 00:20:41;;;;;;;6.28;3.63;;;;;;;22.98;48.53;99841.97;4983243;28;20050;-83
2022/07/27 00:23:08;;;;;;;6.32;3.70;;;;;;;23.00;48.33;99839.88;4933503;28;20426;-83
2022/07/27 00:25:35;;;;;;;9.52;3.72;;;;;;;22.98;48.48;99843.88;4998573;28;20046;-83
2022/07/27 00:28:02;;;;;;;5.82;3.85;;;;;;;22.92;48.63;99843.66;4979838;28;20510;-82
2022/07/27 00:30:29;;;;;;;5.07;3.63;;;;;;;22.92;48.92;99848.22;5005327;28;20099;-87
2022/07/27 00:32:55;;;;;;;5.60;3.67;;;;;;;22.84;49.17;99843.03;4984728;28;20046;-87
2022/07/27 00:35:22;;;;;;;7.03;3.40;;;;;;;22.84;49.11;99846.56;5010299;28;20057;-87
2022/07/27 00:37:49;;;;;;;4.53;3.55;;;;;;;22.85;49.30;99853.69;4961890;28;20038;-82
2022/07/27 00:40:16;;;;;;;7.50;3.63;;;;;;;22.84;49.04;99859.28;4982796;28;20046;-82
2022/07/27 00:42:43;;;;;;;4.15;3.50;;;;;;;22.83;49.12;99861.19;4966985;28;20050;-82
2022/07/27 00:45:10;;;;;;;4.30;3.35;;;;;;;22.75;49.38;99853.31;4979613;28;20050;-82
2022/07/27 00:47:37;;;;;;;6.93;4.10;;;;;;;22.68;50.07;99847.91;4967314;28;20051;-87
2022/07/27 00:50:04;;;;;;;6.60;4.15;;;;;;;22.63;50.05;99849.59;4963202;28;20096;-81
2022/07/27 00:52:31;;;;;;;7.45;3.40;;;;;;;22.62;49.71;99848.78;4977026;28;20093;-80
2022/07/27 00:54:58;;;;;;;5.95;4.00;;;;;;;22.58;49.84;99855.66;4964330;28;20486;-81
2022/07/27 00:57:29;;;;;;;5.13;3.75;;;;;;;22.57;50.00;99847.72;4981564;28;20054;-81
2022/07/27 00:59:56;;;;;;;8.60;4.05;;;;;;;22.56;49.65;99846.91;4981975;28;20046;-81
2022/07/27 01:02:22;;;;;;;7.80;4.43;;;;;;;22.62;49.47;99853.34;4965351;28;20054;-81
2022/07/27 01:04:50;;;;;;;5.60;3.75;;;;;;;22.56;49.37;99844.19;4964763;28;20410;-87
2022/07/27 01:07:19;;;;;;;6.55;4.28;;;;;;;22.58;49.40;99849.41;4982987;28;20046;-80
2022/07/27 01:09:55;;;;;;;5.13;4.00;;;;;;;22.56;49.37;99841.50;4965868;28;20054;-81
2022/07/27 01:12:25;;;;;;;6.03;3.70;;;;;;;22.53;49.38;99842.75;4996328;28;20047;-80
2022/07/27 01:14:52;;;;;;;7.15;4.38;;;;;;;22.61;49.42;99851.69;4982407;28;20042;-81
2022/07/27 01:17:19;;;;;;;8.80;4.28;;;;;;;22.63;49.26;99852.31;4948948;28;20088;-81
2022/07/27 01:19:46;;;;;;;6.35;4.68;;;;;;;22.54;49.57;99849.00;4977087;28;20046;-81
2022/07/27 01:22:13;;;;;;;6.30;4.32;;;;;;;22.54;49.78;99855.25;4981595;28;20042;-82
2022/07/27 01:24:40;;;;;;;6.75;3.65;;;;;;;22.51;49.60;99850.25;5002503;28;20047;-81
2022/07/27 01:27:06;;;;;;;9.77;4.57;;;;;;;22.49;49.84;99846.09;4971698;28;20042;-87
2022/07/27 01:29:34;;;;;;;4.53;3.80;;;;;;;22.42;50.27;99853.44;4984723;28;20399;-87
2022/07/27 01:32:01;;;;;;;5.97;4.50;;;;;;;22.31;50.91;99855.75;4966261;28;20050;-82
2022/07/27 01:34:28;;;;;;;7.70;4.75;;;;;;;22.22;51.56;99848.88;4955234;28;20569;-83
2022/07/27 01:36:54;;;;;;;6.72;4.00;;;;;;;22.22;51.46;99846.19;4985572;28;20046;-83
2022/07/27 01:39:21;;;;;;;7.55;4.53;;;;;;;22.19;51.25;99848.47;4986896;28;20054;-83
2022/07/27 01:41:48;;;;;;;7.32;4.43;;;;;;;22.21;51.37;99852.66;5001909;28;20046;-83
2022/07/27 01:44:14;;;;;;;6.18;3.92;;;;;;;22.13;51.56;99847.41;4984182;28;20637;-83
2022/07/27 01:46:41;;;;;;;4.53;4.03;;;;;;;22.17;51.54;99847.84;4983320;28;20054;-82
2022/07/27 01:49:08;;;;;;;5.10;4.10;;;;;;;22.18;51.85;99846.78;4984863;28;20437;-83
2022/07/27 01:51:35;;;;;;;8.35;3.97;;;;;;;22.14;51.69;99840.16;4993634;28;20046;-83
2022/07/27 01:54:02;;;;;;;6.10;4.18;;;;;;;22.14;51.77;99832.84;4970079;28;20096;-83
2022/07/27 01:56:29;;;;;;;8.50;4.72;;;;;;;22.15;51.69;99839.91;5002877;28;20046;-83
2022/07/27 01:58:56;;;;;;;7.40;4.80;;;;;;;22.09;52.05;99838.06;4970127;28;20046;-87
2022/07/27 02:01:22;;;;;;;10.23;4.65;;;;;;;22.13;51.98;99820.38;4970846;28;20055;-87
2022/07/27 02:03:49;;;;;;;7.78;4.63;;;;;;;22.11;52.03;99822.47;4983299;28;20064;-86
2022/07/27 02:06:16;;;;;;;5.40;4.53;;;;;;;22.01;52.28;99825.59;4986631;28;20049;-88
2022/07/27 02:08:42;;;;;;;5.63;4.32;;;;;;;22.00;52.28;99828.50;5002620;28;20042;-87
2022/07/27 02:14:19;;;;;;;7.55;4.95;;;;;;;21.71;53.30;99821.69;4949385;28;20047;-87
2022/07/27 02:16:47;;;;;;;9.45;4.70;;;;;;;21.94;52.45;99827.47;4949752;28;20379;-87
2022/07/27 02:19:16;;;;;;;8.95;4.40;;;;;;;22.01;52.58;99819.38;4965268;28;20078;-85
2022/07/27 02:21:44;;;;;;;9.77;5.22;;;;;;;22.03;52.72;99809.16;4955863;28;20116;-87
2022/07/27 02:24:10;;;;;;;11.02;5.03;;;;;;;21.99;52.50;99805.22;4965819;28;20046;-82
2022/07/27 02:26:37;;;;;;;7.40;4.95;;;;;;;21.99;52.73;99802.53;4979249;28;20490;-83
2022/07/27 02:29:04;;;;;;;6.55;5.07;;;;;;;21.96;52.65;99798.38;4954509;28;20046;-83
2022/07/27 02:31:30;;;;;;;6.47;4.60;;;;;;;21.94;52.93;99796.91;4953561;28;20047;-82
2022/07/27 02:34:01;;;;;;;7.55;5.05;;;;;;;21.89;52.97;99794.84;4968162;28;20421;-82
2022/07/27 02:36:30;;;;;;;7.68;5.03;;;;;;;21.91;52.80;99800.88;4982455;28;20124;-82
2022/07/27 02:38:57;;;;;;;7.93;5.47;;;;;;;21.91;53.12;99813.56;5016396;28;22462;-83
2022/07/27 02:41:24;;;;;;;6.72;5.32;;;;;;;21.96;52.51;99806.47;5000183;28;20053;-83
2022/07/27 02:43:51;;;;;;;8.82;6.07;;;;;;;21.98;52.50;99809.81;4959671;28;20464;-82
2022/07/27 02:46:17;;;;;;;9.98;5.40;;;;;;;21.86;52.84;99806.06;5000657;28;20059;-83
2022/07/27 02:48:44;;;;;;;8.10;5.47;;;;;;;21.92;52.68;99817.91;4963994;28;20046;-82
2022/07/27 02:51:11;;;;;;;7.63;5.53;;;;;;;21.87;53.00;99821.25;4968910;28;20042;-83
2022/07/27 02:53:37;;;;;;;7.85;5.45;;;;;;;21.79;53.36;99813.34;4979332;28;20039;-82
2022/07/27 02:56:04;;;;;;;8.23;5.20;;;;;;;21.74;52.98;99810.44;4976003;28;20384;-82
2022/07/27 02:58:31;;;;;;;6.95;5.13;;;;;;;21.70;53.46;99820.81;4983936;28;20058;-83
2022/07/27 03:00:58;;;;;;;7.78;5.43;;;;;;;21.75;53.46;99821.03;4980728;28;20043;-82
2022/07/27 03:03:25;;;;;;;6.47;5.20;;;;;;;21.75;53.21;99806.69;4999233;28;20050;-83
2022/07/27 03:06:06;;;;;;;7.20;5.47;;;;;;;21.69;52.98;99808.38;4992271;28;20105;-83
2022/07/27 03:08:36;;;;;;;6.72;5.22;;;;;;;21.80;53.02;99805.03;4975378;28;20046;-82
2022/07/27 03:11:03;;;;;;;5.65;5.03;;;;;;;21.82;53.22;99805.66;4983562;28;20050;-82
2022/07/27 03:13:29;;;;;;;8.15;5.50;;;;;;;21.86;53.40;99816.88;4979096;28;20038;-83
2022/07/27 03:15:57;;;;;;;6.50;5.50;;;;;;;21.76;54.09;99813.78;5013740;28;20046;-83
2022/07/27 03:18:24;;;;;;;7.05;5.47;;;;;;;21.78;54.21;99807.13;4977077;28;20074;-82
2022/07/27 03:20:52;;;;;;;6.35;5.75;;;;;;;21.82;53.65;99807.53;4983893;28;20406;-83
2022/07/27 03:23:19;;;;;;;8.18;5.93;;;;;;;21.82;53.39;99804.81;4968694;28;20046;-79
2022/07/27 03:25:45;;;;;;;6.28;5.60;;;;;;;21.78;53.12;99809.84;4979127;28;20049;-80
2022/07/27 03:28:12;;;;;;;8.15;5.68;;;;;;;21.82;53.44;99813.75;4997824;28;20038;-79
2022/07/27 03:30:39;;;;;;;7.43;6.13;;;;;;;21.87;53.01;99805.03;4980292;28;20390;-79
2022/07/27 03:33:06;;;;;;;7.68;6.07;;;;;;;21.86;53.01;99814.19;4980759;28;20046;-79
2022/07/27 03:35:32;;;;;;;8.52;5.63;;;;;;;21.84;53.37;99813.56;4978061;28;20048;-79
2022/07/27 03:37:59;;;;;;;10.13;5.90;;;;;;;21.83;53.72;99815.44;4965004;28;20402;-79
2022/07/27 03:40:28;;;;;;;7.43;5.82;;;;;;;21.82;53.80;99815.63;4969058;28;20058;-80
2022/07/27 03:42:55;;;;;;;9.20;5.97;;;;;;;21.77;53.79;99815.44;4978899;28;20053;-80
2022/07/27 03:45:21;;;;;;;6.25;5.57;;;;;;;21.80;54.23;99815.00;4974672;28;20060;-80
2022/07/27 03:47:48;;;;;;;9.23;5.50;;;;;;;21.85;54.02;99815.22;4948934;28;20050;-79
2022/07/27 03:50:15;;;;;;;6.55;5.45;;;;;;;21.91;53.79;99830.59;4964184;28;20399;-85
2022/07/27 03:52:41;;;;;;;6.30;5.35;;;;;;;21.85;53.66;99826.03;4980790;28;20509;-84
2022/07/27 03:55:11;;;;;;;8.85;5.50;;;;;;;21.84;53.91;99829.78;4980538;28;20102;-85
2022/07/27 03:57:38;;;;;;;9.68;5.32;;;;;;;21.88;53.66;99829.16;4982474;28;20153;-84
2022/07/27 04:00:06;;;;;;;6.57;5.40;;;;;;;21.83;53.77;99814.59;4983954;28;20042;-84
2022/07/27 04:02:33;;;;;;;5.97;5.38;;;;;;;21.78;53.78;99809.84;4977846;28;20048;-84
2022/07/27 04:05:00;;;;;;;12.48;5.88;;;;;;;21.77;53.40;99816.25;4981917;28;20054;-83
2022/07/27 04:07:27;;;;;;;11.82;5.30;;;;;;;21.83;53.34;99806.47;4982364;28;20455;-85
2022/07/27 04:09:54;;;;;;;8.23;5.63;;;;;;;21.83;53.00;99815.44;5011392;28;20450;-84
2022/07/27 04:12:21;;;;;;;16.08;6.32;;;;;;;21.81;53.07;99817.50;4980065;28;20126;-80
2022/07/27 04:14:48;;;;;;;6.75;5.70;;;;;;;21.84;53.41;99821.66;4983795;28;20042;-79
2022/07/27 04:17:15;;;;;;;7.65;6.13;;;;;;;21.90;53.22;99826.22;4964779;28;20045;-80
2022/07/27 04:20:03;;;;;;;10.18;5.82;;;;;;;21.98;53.53;99819.75;4921212;28;20058;-79
2022/07/27 04:22:30;;;;;;;6.25;5.45;;;;;;;22.59;53.42;99824.00;4966613;28;20447;-80
2022/07/27 04:24:56;;;;;;;6.93;5.80;;;;;;;22.93;52.36;99828.22;4981597;28;20054;-79
2022/07/27 04:27:24;;;;;;;6.22;5.05;;;;;;;22.79;51.64;99823.91;4979761;28;20046;-80
2022/07/27 04:29:50;;;;;;;6.65;5.80;;;;;;;22.53;51.76;99826.50;4965024;28;20050;-84
2022/07/27 04:32:17;;;;;;;6.55;5.50;;;;;;;22.47;52.09;99821.16;4978420;28;20066;-85
2022/07/27 04:34:44;;;;;;;7.43;5.60;;;;;;;22.27;52.62;99816.63;4982074;28;20038;-85
2022/07/27 04:37:12;;;;;;;7.93;5.55;;;;;;;22.17;52.87;99820.78;4995090;28;20108;-85
2022/07/27 04:39:38;;;;;;;6.28;5.65;;;;;;;22.10;53.25;99823.50;4982326;28;20744;-85
2022/07/27 04:42:05;;;;;;;7.10;5.70;;;;;;;22.30;53.35;99818.91;4976010;28;20057;-85
2022/07/27 04:44:32;;;;;;;8.63;6.13;;;;;;;22.37;52.98;99828.88;4977979;28;20057;-85
2022/07/27 04:46:59;;;;;;;6.70;6.00;;;;;;;22.44;52.40;99826.97;4976244;28;20046;-84
2022/07/27 04:49:26;;;;;;;8.20;6.63;;;;;;;22.43;52.53;99834.25;4984047;28;20054;-85
2022/07/27 04:51:52;;;;;;;7.05;5.70;;;;;;;22.48;52.30;99839.84;4977691;28;20418;-84
2022/07/27 04:54:19;;;;;;;6.10;5.50;;;;;;;22.56;52.04;99841.50;4981855;28;20128;-79
2022/07/27 04:56:47;;;;;;;8.00;6.00;;;;;;;22.55;52.14;99842.56;4982560;28;20118;-79
2022/07/27 04:59:13;;;;;;;10.90;5.72;;;;;;;22.65;52.17;99845.63;4979397;28;20081;-84
2022/07/27 05:01:42;;;;;;;11.18;6.55;;;;;;;22.70;51.84;99845.81;4983752;28;20058;-84
2022/07/27 05:04:09;;;;;;;10.10;5.88;;;;;;;22.74;51.95;99854.34;4985865;28;20046;-83
2022/07/27 05:06:35;;;;;;;7.32;6.00;;;;;;;22.71;52.08;99858.28;4989783;28;20046;-84
2022/07/27 05:09:02;;;;;;;9.75;6.43;;;;;;;22.79;52.00;99867.22;4989746;28;20054;-83
2022/07/27 05:11:29;;;;;;;8.20;5.22;;;;;;;22.76;51.74;99869.31;4970333;28;20080;-80
2022/07/27 05:13:55;;;;;;;8.07;5.40;;;;;;;22.70;51.82;99872.06;4972023;28;20046;-84
2022/07/27 05:16:22;;;;;;;8.70;5.30;;;;;;;22.59;51.93;99873.53;4990290;28;20104;-80
2022/07/27 05:18:54;;;;;;;8.23;5.97;;;;;;;22.38;52.38;99876.53;4963137;28;20134;-84
2022/07/27 05:21:21;;;;;;;7.80;6.13;;;;;;;22.33;52.66;99883.38;4988563;28;20054;-81
2022/07/27 05:23:48;;;;;;;6.65;6.05;;;;;;;22.33;52.96;99882.56;5018232;28;20133;-84
2022/07/27 05:26:15;;;;;;;7.68;5.53;;;;;;;22.35;53.07;99888.59;4970696;28;20560;-82
2022/07/27 05:28:42;;;;;;;7.30;6.13;;;;;;;22.37;52.82;99891.09;4980787;28;20054;-84
2022/07/27 05:31:09;;;;;;;5.95;5.30;;;;;;;22.39;52.71;99892.56;4996836;28;20046;-84
2022/07/27 05:33:35;;;;;;;8.23;5.93;;;;;;;22.50;52.57;99893.78;4982533;28;20128;-84
2022/07/27 05:36:02;;;;;;;6.72;5.40;;;;;;;22.63;52.06;99892.91;4988070;28;20034;-84
2022/07/27 05:38:38;;;;;;;11.60;6.20;;;;;;;22.63;52.10;99898.31;4987483;28;20050;-80
2022/07/27 05:41:08;;;;;;;9.25;5.78;;;;;;;22.72;51.71;99907.88;4960530;28;20119;-83
2022/07/27 05:43:35;;;;;;;6.32;5.15;;;;;;;22.74;51.84;99909.31;4964232;28;20062;-83
2022/07/27 05:46:02;;;;;;;7.03;6.32;;;;;;;22.83;52.20;99911.78;4954318;28;20047;-87
2022/07/27 05:48:29;;;;;;;6.47;5.82;;;;;;;22.89;51.73;99916.34;4964966;28;20051;-85
2022/07/27 05:50:56;;;;;;;6.47;5.95;;;;;;;23.03;51.58;99920.69;4932290;28;20470;-85
2022/07/27 05:53:23;;;;;;;7.07;5.35;;;;;;;23.02;51.05;99929.03;4982898;28;20156;-85
2022/07/27 05:55:51;;;;;;;5.78;5.18;;;;;;;23.08;51.00;99923.59;4968107;28;20053;-85
2022/07/27 05:58:29;;;;;;;10.05;5.65;;;;;;;22.93;50.34;99928.41;5032904;28;20058;-88
2022/07/27 06:00:57;;;;;;;10.02;5.68;;;;;;;22.88;50.50;99929.06;4940532;28;20050;-88
2022/07/27 06:03:25;;;;;;;6.00;5.50;;;;;;;22.80;50.64;99932.00;4971014;28;20545;-88
2022/07/27 06:07:57;;;;;;;5.43;4.93;;;;;;;22.84;50.93;99935.09;4970265;28;20081;-86
2022/07/27 06:08:38;;;;;;;6.22;5.35;;;;;;;22.89;50.29;99935.28;4969952;28;20055;-85
2022/07/27 06:11:05;;;;;;;5.63;5.00;;;;;;;22.75;50.83;99935.34;5004662;28;20471;-82
2022/07/27 06:13:35;;;;;;;10.25;4.38;;;;;;;22.75;50.68;99931.81;4958277;28;20411;-82
2022/07/27 06:16:30;;;;;;;5.13;4.13;;;;;;;22.48;51.65;99947.28;4971763;28;20503;-84
2022/07/27 06:18:59;;;;;;;7.03;4.13;;;;;;;22.61;51.24;99943.69;4953051;28;20041;-84
2022/07/27 06:25:13;;;;;;;6.00;3.95;;;;;;;22.60;51.36;99937.47;4947457;28;20113;-87
2022/07/27 06:28:31;;;;;;;6.68;4.03;;;;;;;22.52;51.22;99935.81;4936412;28;20054;-83
2022/07/27 06:30:58;;;;;;;5.95;3.80;;;;;;;22.71;51.06;99936.81;4924537;28;20409;-85
2022/07/27 06:33:27;;;;;;;8.40;4.30;;;;;;;22.56;51.27;99932.69;4983716;28;20046;-84
2022/07/27 06:35:56;;;;;;;6.13;3.45;;;;;;;22.55;51.35;99939.97;5009729;28;20597;-85
2022/07/27 06:38:24;;;;;;;3.75;3.38;;;;;;;22.56;51.08;99938.09;4934044;28;20055;-85
2022/07/27 06:40:51;;;;;;;3.83;3.53;;;;;;;22.56;50.84;99932.69;4953203;28;20042;-85
2022/07/27 06:43:30;;;;;;;6.88;3.80;;;;;;;22.55;51.36;99923.75;4986749;28;20125;-83
2022/07/27 06:45:58;;;;;;;3.20;2.90;;;;;;;22.68;51.51;99917.47;4949215;28;20125;-86
2022/07/27 06:48:25;;;;;;;5.18;3.88;;;;;;;22.63;51.22;99918.09;4999619;28;20050;-86
2022/07/27 06:54:33;;;;;;;5.82;3.55;;;;;;;22.67;50.92;99921.19;4940904;28;20047;-84
2022/07/27 06:57:00;;;;;;;4.55;4.15;;;;;;;22.71;51.12;99920.56;4984059;28;20046;-84
2022/07/27 06:59:27;;;;;;;6.13;3.35;;;;;;;22.74;51.02;99928.28;5016228;28;20486;-84
2022/07/27 07:02:09;;;;;;;3.57;3.23;;;;;;;22.71;51.37;99915.16;4999557;28;20045;-83
2022/07/27 07:04:37;;;;;;;5.95;4.05;;;;;;;22.88;51.29;99917.41;4947522;28;20805;-84
2022/07/27 07:07:03;;;;;;;3.97;3.50;;;;;;;22.87;51.24;99913.88;4991330;28;20054;-85
2022/07/27 07:09:33;;;;;;;5.80;4.10;;;;;;;22.77;51.08;99916.19;4970285;28;20060;-82
2022/07/27 07:12:00;;;;;;;3.72;3.42;;;;;;;22.63;51.45;99904.56;5014965;28;20046;-82
2022/07/27 07:18:36;;;;;;;5.18;3.90;;;;;;;22.59;51.68;99910.59;4964258;28;20114;-85
2022/07/27 07:21:03;;;;;;;4.15;3.75;;;;;;;22.62;51.44;99913.72;4945827;28;20051;-84
2022/07/27 07:23:30;;;;;;;6.40;4.15;;;;;;;22.80;51.03;99915.75;4967635;28;20057;-84
2022/07/27 07:25:57;;;;;;;3.97;3.58;;;;;;;22.96;50.86;99907.13;4968580;28;20502;-84
2022/07/27 07:33:37;;;;;;;3.88;3.22;;;;;;;22.98;50.67;99920.50;4972387;28;20037;-83
2022/07/27 07:36:03;;;;;;;5.05;3.63;;;;;;;23.21;50.03;99919.97;4956606;28;20459;-83
2022/07/27 07:38:41;;;;;;;3.58;3.28;;;;;;;23.24;50.07;99924.97;4923317;28;20080;-83
2022/07/27 07:41:12;;;;;;;4.18;3.22;;;;;;;23.25;49.31;99928.50;4997901;28;20038;-83
2022/07/27 07:43:41;;;;;;;6.00;3.60;;;;;;;23.39;49.11;99925.50;4964540;28;20043;-83
2022/07/27 07:46:08;;;;;;;4.60;3.45;;;;;;;23.44;49.22;99918.63;4982982;28;20065;-83
2022/07/27 07:48:35;;;;;;;4.25;3.20;;;;;;;23.44;48.97;99924.03;4980059;28;20042;-82
2022/07/27 07:51:01;;;;;;;4.32;3.45;;;;;;;23.46;48.94;99922.75;4968148;28;20104;-83
2022/07/27 07:53:28;;;;;;;6.00;3.40;;;;;;;23.46;48.99;99927.34;4979721;28;20054;-83
2022/07/27 08:00:44;;;;;;;3.70;2.90;;;;;;;23.33;49.32;99926.38;4974054;28;20087;-83
2022/07/27 08:03:10;;;;;;;3.95;3.40;;;;;;;23.34;48.94;99921.78;4984826;28;20501;-83
2022/07/27 08:05:37;;;;;;;6.13;3.60;;;;;;;23.38;49.27;99923.00;4979677;28;20038;-83
2022/07/27 08:08:04;;;;;;;3.67;3.00;;;;;;;23.37;49.11;99924.06;4964220;28;20101;-83
2022/07/27 08:10:31;;;;;;;4.68;3.13;;;;;;;23.41;48.61;99925.31;4983514;28;20046;-84
2022/07/27 08:12:58;;;;;;;6.82;3.08;;;;;;;23.45;48.99;99923.78;4951195;28;20046;-83
2022/07/27 08:15:26;;;;;;;6.25;3.83;;;;;;;23.44;48.76;99921.31;4977646;28;20042;-85
2022/07/27 08:18:03;;;;;;;4.68;3.60;;;;;;;23.42;48.49;99921.53;4964888;28;20398;-86
2022/07/27 08:20:30;;;;;;;8.38;3.63;;;;;;;23.38;48.06;99929.28;4965937;28;20046;-88
2022/07/27 08:22:57;;;;;;;3.47;3.13;;;;;;;23.29;47.94;99933.28;4980598;28;20456;-84
2022/07/27 08:25:24;;;;;;;3.67;2.80;;;;;;;23.10;48.09;99918.78;4992911;28;20051;-83
2022/07/27 08:27:50;;;;;;;4.25;3.08;;;;;;;23.03;48.33;99930.72;4983632;28;20050;-84
2022/07/27 08:30:18;;;;;;;6.20;3.67;;;;;;;23.00;48.35;99929.25;4970548;28;20050;-83
2022/07/27 08:32:50;;;;;;;3.42;2.75;;;;;;;23.07;48.56;99927.31;4978635;28;20130;-84
2022/07/27 08:35:21;;;;;;;5.00;2.70;;;;;;;22.96;48.66;99930.69;4982792;28;20050;-84
2022/07/27 08:37:47;;;;;;;3.47;3.05;;;;;;;22.98;48.60;99927.81;4962004;28;20446;-84
2022/07/27 08:40:14;;;;;;;6.75;3.10;;;;;;;22.98;48.85;99928.63;5000045;28;20108;-83
2022/07/27 08:43:01;;;;;;;6.60;3.30;;;;;;;22.91;49.56;99928.63;4979104;28;20089;-84
2022/07/27 08:45:31;;;;;;;4.18;3.10;;;;;;;22.91;49.08;99939.44;4982571;28;20061;-85
2022/07/27 08:48:00;;;;;;;5.53;3.10;;;;;;;22.79;49.30;99934.91;4964332;28;20038;-85
2022/07/27 08:50:29;;;;;;;5.38;2.85;;;;;;;22.71;49.35;99938.69;4930669;28;20052;-85
2022/07/27 08:53:07;;;;;;;3.90;2.85;;;;;;;22.76;49.49;99936.16;4980180;28;20077;-85
2022/07/27 08:55:36;;;;;;;4.70;2.95;;;;;;;22.83;49.27;99939.69;4990241;28;20057;-85
2022/07/27 08:58:04;;;;;;;3.22;2.75;;;;;;;22.87;48.87;99949.06;4991602;28;20140;-85
2022/07/27 09:00:33;;;;;;;4.47;2.80;;;;;;;22.87;47.93;99943.66;4995258;28;20042;-84
2022/07/27 09:03:00;;;;;;;5.13;2.95;;;;;;;22.80;48.37;99939.31;4981238;28;20047;-85
2022/07/27 09:05:28;;;;;;;4.35;2.65;;;;;;;22.94;48.13;99933.59;4995981;28;20054;-85
2022/07/27 09:08:09;;;;;;;4.63;3.15;;;;;;;22.94;48.00;99938.19;4964724;28;20494;-85
2022/07/27 09:10:39;;;;;;;4.68;2.95;;;;;;;23.13;47.80;99928.38;4969468;28;20049;-84
2022/07/27 09:13:24;;;;;;;3.63;2.83;;;;;;;23.15;48.13;99927.09;4962405;28;20386;-85
2022/07/27 09:16:06;;;;;;;6.72;2.72;;;;;;;23.30;48.09;99925.97;4987891;28;20050;-84
2022/07/27 09:18:57;;;;;;;4.45;3.03;;;;;;;23.44;47.87;99924.03;4921419;28;20061;-85
2022/07/27 09:21:24;;;;;;;2.83;2.53;;;;;;;23.58;47.57;99928.31;4932536;28;20054;-84
2022/07/27 09:23:58;;;;;;;2.85;2.65;;;;;;;23.65;47.07;99915.53;4994662;28;20042;-83
2022/07/27 09:26:28;;;;;;;3.47;2.63;;;;;;;23.66;46.86;99925.34;4974101;28;20057;-84
2022/07/27 09:29:10;;;;;;;2.60;2.40;;;;;;;23.71;46.83;99921.97;4950570;28;20042;-84
2022/07/27 09:36:21;;;;;;;2.97;2.70;;;;;;;23.60;46.38;99916.19;4965229;28;20390;-85
2022/07/27 09:38:55;;;;;;;6.40;2.85;;;;;;;23.54;46.40;99917.06;4977224;28;20050;-84
2022/07/27 09:41:43;;;;;;;3.10;2.65;;;;;;;23.40;46.73;99916.31;4947207;28;20065;-85
2022/07/27 09:44:12;;;;;;;4.28;2.70;;;;;;;23.38;46.92;99929.28;4984247;28;20418;-85
2022/07/27 09:46:58;;;;;;;5.05;2.83;;;;;;;23.27;47.28;99923.69;4938310;28;20132;-85
2022/07/27 09:49:32;;;;;;;4.90;3.05;;;;;;;23.29;46.95;99924.31;4968378;28;20417;-87
2022/07/27 09:52:01;;;;;;;3.42;2.70;;;;;;;23.28;47.09;99925.34;4964470;28;20816;-87
2022/07/27 09:54:45;;;;;;;3.28;2.90;;;;;;;23.22;46.45;99926.22;5003825;28;20056;-87
2022/07/27 09:57:13;;;;;;;3.38;2.55;;;;;;;23.33;46.63;99936.38;4986883;28;20141;-84
2022/07/27 09:59:40;;;;;;;4.40;2.58;;;;;;;23.33;46.55;99937.22;4976567;28;20462;-83
2022/07/27 10:06:49;;;;;;;2.90;2.55;;;;;;;23.28;46.51;99930.78;4962069;28;20038;-84
2022/07/27 10:09:36;;;;;;;3.22;2.60;;;;;;;23.36;46.22;99925.13;4918213;28;20047;-84
2022/07/27 10:12:03;;;;;;;6.45;3.30;;;;;;;23.42;46.05;99931.53;4954243;28;20050;-83
2022/07/27 10:14:31;;;;;;;3.00;2.70;;;;;;;23.46;45.80;99932.75;4965851;28;20475;-85
2022/07/27 10:16:58;;;;;;;3.00;2.50;;;;;;;23.53;45.79;99934.38;4950007;28;20122;-84
2022/07/27 10:19:33;;;;;;;2.78;2.58;;;;;;;23.62;45.77;99924.94;4942695;28;20063;-85
2022/07/27 10:22:00;;;;;;;4.82;2.83;;;;;;;23.67;45.54;99915.34;4980846;28;20046;-85
2022/07/27 10:24:35;;;;;;;4.07;2.88;;;;;;;23.63;44.79;99925.75;5000847;28;20100;-84
2022/07/27 10:27:27;;;;;;;2.70;2.45;;;;;;;23.66;45.08;99930.78;5014578;28;20089;-88
2022/07/27 10:29:54;;;;;;;5.18;2.70;;;;;;;23.83;45.40;99923.78;4978666;28;20139;-84
2022/07/27 10:32:29;;;;;;;5.93;2.70;;;;;;;23.93;45.65;99915.16;4935923;28;20442;-84
2022/07/27 10:34:56;;;;;;;3.08;2.83;;;;;;;24.03;45.57;99915.47;4984742;28;20050;-84
2022/07/27 10:37:25;;;;;;;4.20;2.75;;;;;;;24.00;44.67;99931.38;4964085;28;20042;-85
2022/07/27 10:42:49;;;;;;;3.33;2.40;;;;;;;24.14;44.45;99915.81;4965900;28;20046;-84
2022/07/27 10:45:20;;;;;;;3.55;2.42;;;;;;;24.19;44.47;99919.50;4974292;28;20066;-85
2022/07/27 10:47:49;;;;;;;3.42;3.00;;;;;;;24.15;42.86;99923.72;4985128;28;20038;-84
2022/07/27 10:50:16;;;;;;;4.97;3.00;;;;;;;24.13;42.83;99923.13;5002665;28;20475;-87
2022/07/27 10:52:49;;;;;;;4.55;2.90;;;;;;;24.06;42.00;99925.06;5014044;28;20128;-86
2022/07/27 10:59:47;;;;;;;3.17;2.88;;;;;;;23.92;43.35;99926.22;4965328;28;20137;-87
2022/07/27 11:02:41;;;;;;;4.60;2.60;;;;;;;23.84;43.48;99924.63;4983867;28;20046;-84
2022/07/27 11:05:10;;;;;;;5.60;2.88;;;;;;;23.67;43.15;99929.72;4983905;28;20043;-84
2022/07/27 11:07:57;;;;;;;3.00;2.67;;;;;;;23.68;43.43;99925.13;4967742;28;20062;-83
2022/07/27 11:10:44;;;;;;;3.20;2.78;;;;;;;23.60;43.62;99920.78;4985697;28;20129;-84
2022/07/27 11:13:11;;;;;;;3.10;2.30;;;;;;;23.55;44.01;99939.59;4954604;28;20446;-83
2022/07/27 11:15:38;;;;;;;3.03;2.78;;;;;;;23.42;44.39;99926.94;4991881;28;20504;-84
2022/07/27 11:18:05;;;;;;;3.55;2.40;;;;;;;23.45;43.97;99920.25;4968682;28;20046;-84
2022/07/27 11:20:32;;;;;;;4.40;2.53;;;;;;;23.45;44.09;99922.97;4984019;28;20054;-84
2022/07/27 11:23:01;;;;;;;3.50;2.58;;;;;;;23.54;43.97;99929.81;4982111;28;20046;-87
2022/07/27 11:25:58;;;;;;;3.00;2.70;;;;;;;23.40;44.21;99921.72;4930050;28;20043;-85
2022/07/27 11:28:29;;;;;;;3.35;2.53;;;;;;;23.56;43.93;99922.25;4954954;28;20138;-85
2022/07/27 11:30:56;;;;;;;3.50;2.70;;;;;;;23.61;43.96;99911.63;4961515;28;20146;-85
2022/07/27 11:33:23;;;;;;;3.92;3.00;;;;;;;23.65;43.80;99917.44;4948683;28;20130;-85
2022/07/27 11:35:53;;;;;;;6.80;3.00;;;;;;;23.73;43.43;99918.00;4933488;28;20042;-85
2022/07/27 11:38:20;;;;;;;4.70;2.75;;;;;;;23.79;43.27;99910.91;4921343;28;20425;-85
2022/07/27 11:45:30;;;;;;;3.50;2.83;;;;;;;24.02;43.18;99910.28;4960249;28;20030;-88
2022/07/27 11:47:57;;;;;;;3.15;2.38;;;;;;;24.13;42.80;99906.84;4985729;28;20054;-84
2022/07/27 11:50:23;;;;;;;4.45;2.85;;;;;;;24.11;42.25;99905.41;4948145;28;20403;-84
2022/07/27 11:52:57;;;;;;;5.50;2.67;;;;;;;23.99;42.38;99902.56;4954694;28;20073;-84
2022/07/27 11:55:27;;;;;;;4.30;2.78;;;;;;;24.09;42.23;99905.63;4934616;28;20087;-83
2022/07/27 11:58:03;;;;;;;3.72;2.65;;;;;;;24.13;42.15;99896.00;4955415;28;20054;-84
2022/07/27 12:00:40;;;;;;;3.10;2.47;;;;;;;24.15;42.02;99899.31;4917536;28;20050;-84
2022/07/27 12:03:07;;;;;;;4.88;2.95;;;;;;;24.19;41.52;99905.94;4999607;28;20128;-84
2022/07/27 12:05:34;;;;;;;5.40;2.70;;;;;;;24.26;41.23;99892.31;4970961;28;20532;-84
2022/07/27 12:08:02;;;;;;;4.22;2.50;;;;;;;24.34;41.90;99889.31;4996296;28;20490;-85
2022/07/27 12:10:29;;;;;;;3.08;2.50;;;;;;;24.38;41.26;99895.13;4982605;28;20053;-84
2022/07/27 12:13:02;;;;;;;4.28;2.40;;;;;;;24.27;41.66;99883.97;4981615;28;20038;-85
2022/07/27 12:15:29;;;;;;;5.70;3.35;;;;;;;24.12;41.80;99886.19;4977059;28;20050;-84
2022/07/27 12:18:12;;;;;;;5.15;2.30;;;;;;;24.15;41.63;99882.22;4972646;28;20070;-84
2022/07/27 12:20:39;;;;;;;3.72;2.08;;;;;;;24.12;41.08;99893.47;4947444;28;20483;-83
2022/07/27 12:27:13;;;;;;;4.28;2.70;;;;;;;24.02;41.87;99894.84;4929386;28;20042;-85
2022/07/27 12:30:04;;;;;;;3.95;2.50;;;;;;;23.92;41.35;99890.97;4927490;28;20039;-85
2022/07/27 12:32:33;;;;;;;2.97;2.10;;;;;;;24.12;41.61;99897.06;4936345;28;20499;-87
2022/07/27 12:35:00;;;;;;;3.55;2.20;;;;;;;24.20;42.33;99883.19;4968355;28;20046;-87